createdAt,value
2019-01-12T00:01:56.570Z,97687.98
2019-01-12T00:04:56.083Z,97682.72
2019-01-12T00:10:42.509Z,97687.34
2019-01-12T00:13:42.568Z,97688.53
2019-01-12T00:16:10.359Z,97692.31
2019-01-12T00:19:09.786Z,97688.45
2019-01-12T00:22:09.887Z,97691.91
2019-01-12T00:25:09.932Z,97682.06
2019-01-12T00:27:56.970Z,97683.55
2019-01-12T00:30:56.403Z,97672.42
2019-01-12T00:33:56.651Z,97679.25
2019-01-12T00:36:24.481Z,97671.42
2019-01-12T00:39:14.225Z,97670.44
2019-01-12T00:42:13.692Z,97675.55
2019-01-12T00:45:13.808Z,97657.45
2019-01-12T00:47:41.902Z,97665.61
2019-01-12T00:50:11.481Z,97667.72
2019-01-12T00:59:12.701Z,97666.86
2019-01-12T01:05:01.520Z,97665.38
2019-01-12T01:08:01.853Z,97671.78
2019-01-12T01:13:48.571Z,97674.48
2019-01-12T01:16:48.641Z,97671.32
2019-01-12T01:22:17.021Z,97670.13
2019-01-12T01:28:18.028Z,97686.06
2019-01-12T01:31:17.434Z,97686.47
2019-01-12T01:34:17.630Z,97689.09
2019-01-12T01:39:58.201Z,97671.72
2019-01-12T01:42:58.483Z,97677.72
2019-01-12T01:48:26.776Z,97682.92
2019-01-12T01:51:27.158Z,97678.17
2019-01-12T01:57:06.707Z,97684.73
2019-01-12T02:00:06.331Z,97684.00
2019-01-12T02:02:34.148Z,97669.70
2019-01-12T02:05:33.607Z,97674.78
2019-01-12T02:08:33.899Z,97682.61
2019-01-12T02:14:34.663Z,97685.09
2019-01-12T02:17:02.405Z,97685.22
2019-01-12T02:19:42.191Z,97675.33
2019-01-12T02:22:50.507Z,97668.54
2019-01-12T02:25:18.277Z,97664.84
2019-01-12T02:28:00.423Z,97669.93
2019-01-12T02:30:49.478Z,97666.00
2019-01-12T02:33:29.273Z,97667.24
2019-01-12T02:35:56.813Z,97662.21
2019-01-12T02:38:24.442Z,97655.31
2019-01-12T02:40:52.061Z,97658.40
2019-01-12T02:43:51.572Z,97662.41
2019-01-12T02:46:19.216Z,97660.35
2019-01-12T02:48:46.810Z,97653.36
2019-01-12T02:51:14.406Z,97653.48
2019-01-12T02:53:42.035Z,97657.33
2019-01-12T02:56:09.605Z,97646.06
2019-01-12T02:58:37.255Z,97656.54
2019-01-12T03:01:05.243Z,97657.44
2019-01-12T03:03:32.898Z,97650.47
2019-01-12T03:06:00.521Z,97650.16
2019-01-12T03:08:28.134Z,97643.25
2019-01-12T03:10:58.602Z,97640.45
2019-01-12T03:13:45.680Z,97635.69
2019-01-12T03:16:54.062Z,97650.16
2019-01-12T03:22:53.368Z,97636.02
2019-01-12T03:25:53.620Z,97624.80
2019-01-12T03:34:57.195Z,97626.72
2019-01-12T03:37:57.460Z,97622.80
2019-01-12T03:40:57.743Z,97615.87
2019-01-12T03:43:57.900Z,97621.45
2019-01-12T03:46:58.041Z,97619.70
2019-01-12T03:49:25.985Z,97617.09
2019-01-12T03:52:14.928Z,97622.30
2019-01-12T03:55:04.065Z,97630.06
2019-01-12T04:00:45.979Z,97624.18
2019-01-12T04:03:54.298Z,97610.79
2019-01-12T04:09:55.461Z,97603.58
2019-01-12T04:12:55.690Z,97603.67
2019-01-12T04:15:55.714Z,97603.61
2019-01-12T04:18:55.760Z,97602.21
2019-01-12T04:21:55.962Z,97606.88
2019-01-12T04:24:56.003Z,97604.36
2019-01-12T04:27:56.687Z,97612.09
2019-01-12T04:33:18.639Z,97599.61
2019-01-12T04:39:36.087Z,97599.94
2019-01-12T04:42:35.887Z,97595.56
2019-01-12T04:48:42.837Z,97586.97
2019-01-12T04:55:00.669Z,97586.22
2019-01-12T05:01:18.136Z,97595.14
2019-01-12T05:03:58.318Z,97595.26
2019-01-12T05:07:06.919Z,97599.36
2019-01-12T05:12:46.586Z,97591.66
2019-01-12T05:16:00.521Z,97586.91
2019-01-12T05:19:00.189Z,97577.03
2019-01-12T05:22:00.838Z,97597.78
2019-01-12T05:25:01.377Z,97589.73
2019-01-12T05:28:01.610Z,97595.26
2019-01-12T05:30:48.830Z,97577.62
2019-01-12T05:33:50.708Z,97577.55
2019-01-12T05:36:50.649Z,97575.95
2019-01-12T05:42:49.849Z,97572.89
2019-01-12T05:48:49.395Z,97570.36
2019-01-12T05:54:50.665Z,97561.70
2019-01-12T06:00:51.944Z,97575.02
2019-01-12T06:06:51.236Z,97587.63
2019-01-12T06:12:50.489Z,97589.23
2019-01-12T06:18:57.875Z,97588.44
2019-01-12T06:24:58.208Z,97602.48
2019-01-12T06:30:37.120Z,97608.16
2019-01-12T06:36:45.901Z,97625.01
2019-01-12T06:39:33.153Z,97613.34
2019-01-12T06:42:20.220Z,97609.03
2019-01-12T06:45:26.085Z,97597.49
2019-01-12T06:48:34.453Z,97599.66
2019-01-12T06:57:44.154Z,97597.91
2019-01-12T07:00:31.204Z,97602.66
2019-01-12T07:03:41.351Z,97616.44
2019-01-12T07:09:40.681Z,97638.41
2019-01-12T07:12:20.359Z,97651.36
2019-01-12T07:15:28.619Z,97650.51
2019-01-12T07:18:28.230Z,97654.03
2019-01-12T07:26:58.449Z,97664.75
2019-01-12T07:29:57.822Z,97663.72
2019-01-12T07:33:06.241Z,97663.28
2019-01-12T07:38:34.993Z,97666.90
2019-01-12T07:41:13.938Z,97670.34
2019-01-12T07:44:04.273Z,97664.22
2019-01-12T07:46:54.230Z,97669.65
2019-01-12T07:52:23.077Z,97667.66
2019-01-12T07:57:55.483Z,97679.14
2019-01-12T08:01:03.853Z,97671.25
2019-01-12T08:06:32.230Z,97672.48
2019-01-12T08:09:32.500Z,97675.00
2019-01-12T08:12:32.648Z,97682.66
2019-01-12T08:15:33.034Z,97676.78
2019-01-12T08:18:33.174Z,97673.90
2019-01-12T08:21:33.317Z,97674.25
2019-01-12T08:24:33.543Z,97688.97
2019-01-12T08:33:03.576Z,97683.08
2019-01-12T08:35:58.528Z,97678.52
2019-01-12T08:38:47.535Z,97673.23
2019-01-12T08:41:47.154Z,97660.76
2019-01-12T08:44:27.199Z,97665.64
2019-01-12T08:50:35.739Z,97661.09
2019-01-12T08:53:22.799Z,97653.59
2019-01-12T08:56:11.739Z,97643.31
2019-01-12T08:59:11.396Z,97637.69
2019-01-12T09:01:52.112Z,97634.16
2019-01-12T09:04:51.466Z,97626.62
2019-01-12T09:07:50.941Z,97624.13
2019-01-12T09:10:20.055Z,97634.08
2019-01-12T09:12:47.756Z,97632.92
2019-01-12T09:15:15.467Z,97634.58
2019-01-12T09:20:24.125Z,97630.55
2019-01-12T09:23:23.781Z,97618.48
2019-01-12T09:26:12.726Z,97625.09
2019-01-12T09:29:13.021Z,97612.92
2019-01-12T09:32:13.143Z,97618.13
2019-01-12T09:35:13.301Z,97618.77
2019-01-12T09:38:13.401Z,97623.29
2019-01-12T09:40:41.186Z,97620.30
2019-01-12T09:43:41.171Z,97615.53
2019-01-12T09:46:08.870Z,97608.86
2019-01-12T09:49:08.267Z,97612.88
2019-01-12T09:52:08.367Z,97604.91
2019-01-12T09:54:36.131Z,97598.67
2019-01-12T09:57:03.813Z,97600.83
2019-01-12T09:59:31.531Z,97611.55
2019-01-12T10:01:59.284Z,97608.94
2019-01-12T10:04:27.091Z,97604.70
2019-01-12T10:06:55.021Z,97599.91
2019-01-12T10:09:22.756Z,97599.54
2019-01-12T10:11:50.415Z,97592.84
2019-01-12T10:14:18.094Z,97592.77
2019-01-12T10:16:45.782Z,97604.94
2019-01-12T10:19:13.622Z,97599.20
2019-01-12T10:21:41.342Z,97596.62
2019-01-12T10:24:09.181Z,97589.16
2019-01-12T10:26:36.893Z,97586.05
2019-01-12T10:29:16.951Z,97583.00
2019-01-12T10:31:44.708Z,97582.31
2019-01-12T10:34:12.538Z,97573.52
2019-01-12T10:36:40.225Z,97560.81
2019-01-12T10:39:08.055Z,97561.92
2019-01-12T10:41:35.885Z,97571.22
2019-01-12T10:44:36.124Z,97571.22
2019-01-12T10:47:04.063Z,97564.18
2019-01-12T10:49:31.783Z,97557.91
2019-01-12T10:51:59.658Z,97565.63
2019-01-12T10:54:27.337Z,97557.64
2019-01-12T10:56:55.147Z,97562.47
2019-01-12T10:59:22.794Z,97563.10
2019-01-12T11:01:50.511Z,97533.97
2019-01-12T11:04:18.247Z,97534.47
2019-01-12T11:06:45.985Z,97559.63
2019-01-12T11:09:45.464Z,97540.97
2019-01-12T11:12:25.158Z,97526.77
2019-01-12T11:15:25.144Z,97562.98
2019-01-12T11:18:25.262Z,97539.95
2019-01-12T11:21:24.579Z,97529.89
2019-01-12T11:24:24.670Z,97547.92
2019-01-12T11:27:04.456Z,97525.28
2019-01-12T11:30:03.934Z,97530.59
2019-01-12T11:32:44.371Z,97535.14
2019-01-12T11:35:33.359Z,97533.12
2019-01-12T11:38:33.376Z,97545.28
2019-01-12T11:41:12.985Z,97537.70
2019-01-12T11:44:12.684Z,97529.38
2019-01-12T11:47:12.861Z,97537.44
2019-01-12T11:50:13.055Z,97537.86
2019-01-12T11:53:13.404Z,97527.98
2019-01-12T11:55:41.217Z,97531.95
2019-01-12T11:58:41.358Z,97518.84
2019-01-12T12:01:09.089Z,97510.39
2019-01-12T12:04:08.475Z,97509.23
2019-01-12T12:06:36.234Z,97501.16
2019-01-12T12:09:37.707Z,97496.38
2019-01-12T12:12:05.546Z,97489.78
2019-01-12T12:15:05.119Z,97497.52
2019-01-12T12:17:32.973Z,97495.50
2019-01-12T12:20:14.996Z,97485.41
2019-01-12T12:22:42.660Z,97487.57
2019-01-12T12:28:11.609Z,97479.19
2019-01-12T12:30:41.122Z,97480.67
2019-01-12T12:33:09.132Z,97477.11
2019-01-12T12:41:51.029Z,97470.86
2019-01-12T12:44:18.785Z,97471.62
2019-01-12T12:47:18.937Z,97472.55
2019-01-12T12:49:46.709Z,97469.09
2019-01-12T12:52:14.484Z,97469.68
2019-01-12T12:54:42.190Z,97474.10
2019-01-12T12:57:41.875Z,97461.05
2019-01-12T13:00:46.061Z,97472.91
2019-01-12T13:03:13.761Z,97462.51
2019-01-12T13:05:41.589Z,97470.05
2019-01-12T13:08:41.392Z,97468.13
2019-01-12T13:11:09.062Z,97460.39
2019-01-12T13:16:37.514Z,97459.08
2019-01-12T13:19:16.561Z,97462.64
2019-01-12T13:21:44.434Z,97457.20
2019-01-12T13:24:43.778Z,97447.80
2019-01-12T13:27:11.562Z,97446.34
2019-01-12T13:29:50.712Z,97460.55
2019-01-12T13:32:18.462Z,97460.68
2019-01-12T13:37:45.865Z,97457.15
2019-01-12T13:40:46.821Z,97461.84
2019-01-12T13:43:46.200Z,97456.58
2019-01-12T13:46:13.942Z,97446.75
2019-01-12T13:49:14.344Z,97455.95
2019-01-12T13:52:02.402Z,97457.52
2019-01-12T13:57:21.188Z,97458.41
2019-01-12T14:00:21.438Z,97460.47
2019-01-12T14:02:49.101Z,97452.66
2019-01-12T14:05:16.852Z,97452.30
2019-01-12T14:07:44.912Z,97457.09
2019-01-12T14:13:16.676Z,97438.76
2019-01-12T14:16:16.868Z,97445.52
2019-01-12T14:21:25.382Z,97419.67
2019-01-12T14:24:04.416Z,97441.77
2019-01-12T14:26:44.459Z,97446.91
2019-01-12T14:29:12.213Z,97421.08
2019-01-12T14:32:12.050Z,97425.92
2019-01-12T14:35:12.224Z,97428.83
2019-01-12T14:37:39.955Z,97426.52
2019-01-12T14:40:10.098Z,97416.09
2019-01-12T14:42:37.841Z,97415.85
2019-01-12T14:45:18.465Z,97421.27
2019-01-12T14:47:46.276Z,97428.34
2019-01-12T14:50:46.214Z,97434.80
2019-01-12T14:53:45.794Z,97423.85
2019-01-12T14:56:34.668Z,97416.23
2019-01-12T14:59:34.130Z,97409.45
2019-01-12T15:02:34.370Z,97393.23
2019-01-12T15:05:36.041Z,97419.13
2019-01-12T15:08:36.277Z,97429.52
2019-01-12T15:11:04.101Z,97422.90
2019-01-12T15:13:44.248Z,97415.86
2019-01-12T15:16:24.752Z,97406.22
2019-01-12T15:19:24.716Z,97409.17
2019-01-12T15:21:52.390Z,97408.51
2019-01-12T15:24:52.716Z,97408.33
2019-01-12T15:27:20.476Z,97415.86
2019-01-12T15:30:19.922Z,97401.97
2019-01-12T15:33:01.575Z,97416.41
2019-01-12T15:35:31.670Z,97424.98
2019-01-12T15:47:01.301Z,97420.52
2019-01-12T15:50:01.450Z,97425.63
2019-01-12T15:52:41.078Z,97428.38
2019-01-12T15:55:41.009Z,97427.45
2019-01-12T15:58:41.194Z,97420.51
2019-01-12T16:01:21.345Z,97439.11
2019-01-12T16:07:16.668Z,97426.08
2019-01-12T16:10:06.468Z,97431.72
2019-01-12T16:13:05.892Z,97432.02
